Terminal Aerodrome Forecast
Issued by NWS Portland, ME

Current Version | Previous Version | Text Only | Print | Product List | Glossary On
Versions: 1 2 3 4 5 6 7 8 9 10 11 12 13 14 15 16
568
FTUS41 KGYX 221723
TAFCON
TAF
KCON 221723Z 2218/2318 VRB03KT P6SM SCT050 SCT120
     FM230900 05006KT P6SM SCT050 BKN120=

USA.gov is the U.S. government's official web portal to all federal, state and local government web resources and services.